NCAR-RAP Real-Time Weather Data

Output produced by METARs form (12 August 2020  18:58 UTC)
found at http://weather.rap.ucar.edu/surface/
 
KBDR 121852Z 15008KT 10SM CLR 31/22 A3000 RMK AO2 SLP160 T03110217
KBDR 121752Z 15008KT 10SM CLR 31/22 A3002 RMK AO2 SLP165 T03060222 10311 20261 58002
KBDR 121652Z 17006KT 10SM CLR 29/23 A3002 RMK AO2 SLP164 T02940228
KBDR 121552Z 19009KT 10SM CLR 28/23 A3003 RMK AO2 SLP169 T02830233
KBDR 121452Z 17007KT 10SM FEW018 28/23 A3002 RMK AO2 SLP167 T02830233 51004
KBDR 121352Z 22005KT 9SM FEW011 27/23 A3002 RMK AO2 SLP165 T02720233
KBDR 121252Z 23005KT 10SM CLR 27/23 A3002 RMK AO2 SLP166 T02670233
KBDR 121228Z 19005KT 10SM FEW025 26/23 A3002 RMK AO2 T02610228
KBDR 121152Z 00000KT 10SM OVC022 26/22 A3001 RMK AO2 SLP162 60000 T02610222 10261 20244 53011
KBDR 121124Z 30003KT 10SM SCT014 OVC022 26/22 A3001 RMK AO2 T02560222
KBDR 121109Z 27003KT 10SM BKN014 OVC022 26/22 A3001 RMK AO2 T02560222
KBDR 121052Z 25003KT 10SM OVC015 25/22 A3001 RMK AO2 SLP162 T02500222
KBDR 121038Z 24004KT 10SM BKN015 25/22 A3001 RMK AO2 T02500222
KBDR 120952Z AUTO 23003KT 10SM FEW022 25/22 A2998 RMK AO2 RAB11E32 TSB0857E12 SLP152 P0000 T02500222 TSNO
KBDR 120941Z AUTO 21004KT 10SM SCT022 24/22 A2998 RMK AO2 LTG DSNT SE AND S RAB11E32 TSB0857E12 P0000 T02440222
KBDR 120932Z AUTO 16007KT 8SM VCTS SCT009 BKN022 24/22 A2998 RMK AO2 LTG DSNT SE AND S RAB11E32 TSB0857E12 P0000 T02440222
KBDR 120912Z AUTO 20004KT 8SM VCTS -RA OVC009 26/24 A2998 RMK AO2 LTG DSNT S RAB11 TSB0857E12 CIG 007V013 P0000 T02560239
KBDR 120903Z AUTO 19005KT 9SM TS BKN010 OVC035 26/24 A2998 RMK AO2 LTG DSNT SW TSB0857 T02560239
KBDR 120852Z AUTO 22003KT 10SM VCTS BKN010 OVC035 26/23 A2998 RMK AO2 LTG DSNT SW SLP152 T02560233 53003
KBDR 120752Z AUTO 23004KT 9SM OVC010 26/23 A2998 RMK AO2 SLP151 T02560233
KBDR 120726Z AUTO 23003KT 8SM FEW007 BKN011 BKN085 26/24 A2997 RMK AO2 T02560239
KBDR 120652Z AUTO 23004KT 8SM FEW011 26/23 A2997 RMK AO2 SLP149 T02560233
KBDR 120648Z AUTO 23005KT 8SM SCT011 26/23 A2997 RMK AO2
KBDR 120552Z AUTO 22004KT 9SM BKN011 26/23 A2997 RMK AO2 SLP149 T02560233 10272 20256 52004
KBDR 120452Z AUTO 22007KT 10SM OVC012 26/23 A2997 RMK AO2 SLP148 T02610233 403170244
KBDR 120352Z AUTO 22011KT 10SM OVC012 26/23 A2996 RMK AO2 SLP146 T02610233
KBDR 120303Z AUTO 22009KT 10SM BKN014 27/23 A2996 RMK AO2 T02670233
KBDR 120252Z AUTO 21009KT 10SM BKN015 27/23 A2996 RMK AO2 SLP145 T02670233 50008
KBDR 120208Z AUTO 22009KT 10SM BKN015 27/23 A2996 RMK AO2 T02670233
KBDR 120152Z 21010KT 10SM BKN014 27/23 A2996 RMK AO2 SLP145 T02670233
KBDR 120141Z 21011KT 10SM BKN014 27/23 A2996 RMK AO2 T02670233
KBDR 120134Z 21010KT 10SM BKN015 27/23 A2996 RMK AO2 T02670233
KBDR 120052Z 19010KT 10SM CLR 27/23 A2994 RMK AO2 SLP138 T02670233
KBDR 112352Z 20008KT 10SM CLR 27/23 A2994 RMK AO2 SLP137 T02720233 10317 20272 53001
KBDR 112252Z 20008KT 10SM CLR 28/23 A2993 RMK AO2 SLP136 T02830228
KBDR 112152Z 20010KT 10SM CLR 29/22 A2993 RMK AO2 SLP135 T02890222
KBDR 112052Z 19012G18KT 10SM CLR 29/23 A2993 RMK AO2 SLP136 T02890228 58011
KBDR 111952Z 18014KT 10SM CLR 29/22 A2994 RMK AO2 SLP140 T02940217
KBDR 111852Z 19012KT 10SM CLR 31/22 A2995 RMK AO2 SLP143 T03110217
KBDR 111752Z 18013KT 10SM CLR 31/22 A2996 RMK AO2 SLP146 T03060222 10317 20256 58012
KBDR 111652Z 19010KT 10SM CLR 31/23 A2997 RMK AO2 SLP150 T03110228
KBDR 111552Z 19009KT 10SM CLR 30/23 A2999 RMK AO2 SLP155 T03000228
KBDR 111452Z 20010KT 10SM CLR 29/23 A3000 RMK AO2 SLP158 T02890233 52005
KBDR 111352Z 21008KT 10SM CLR 27/23 A2999 RMK AO2 SLP155 T02720228
KBDR 111252Z 20007KT 10SM CLR 27/23 A2999 RMK AO2 SLP156 T02670228
KBDR 111152Z 21004KT 10SM CLR 26/23 A2998 RMK AO2 SLP153 T02560233 10256 20244 53009
KBDR 111052Z 21006KT 8SM CLR 25/23 A2997 RMK AO2 SLP150 T02500233
KBDR 110952Z AUTO 22004KT 10SM CLR 25/23 A2996 RMK AO2 SLP147 T02500233
KBDR 110852Z AUTO 23005KT 10SM CLR 26/23 A2996 RMK AO2 SLP144 T02560233 53001
KBDR 110752Z AUTO 23004KT 10SM CLR 26/23 A2995 RMK AO2 SLP142 T02560233
KBDR 110652Z AUTO 20005KT 10SM CLR 25/23 A2995 RMK AO2 SLP142 T02500228
KBDR 110552Z AUTO 20007KT 10SM CLR 25/23 A2996 RMK AO2 SLP144 T02500228 10283 20250 58006
KBDR 110452Z AUTO 19007KT 10SM CLR 26/23 A2997 RMK AO2 SLP147 T02560228 403330239
KBDR 110352Z AUTO 20007KT 10SM CLR 26/23 A2997 RMK AO2 SLP147 T02610228
KBDR 110252Z AUTO 20006KT 10SM CLR 27/22 A2997 RMK AO2 SLP150 T02670222 51004
KBDR 110152Z 25004KT 10SM CLR 27/23 A2997 RMK AO2 SLP149 T02720228
KBDR 110052Z 22007KT 10SM CLR 28/23 A2997 RMK AO2 SLP148 T02780228
KBDR 102352Z 21008KT 10SM CLR 28/23 A2996 RMK AO2 SLP145 T02780228 10333 20278 53003
KBDR 102252Z 20010KT 10SM CLR 29/22 A2996 RMK AO2 SLP144 T02890222
KBDR 102152Z 20013KT 10SM CLR 31/21 A2995 RMK AO2 SLP141 T03060211
KBDR 102052Z 19013KT 10SM CLR 32/21 A2995 RMK AO2 SLP142 T03170211 58016
KBDR 101952Z 18011KT 10SM CLR 33/19 A2997 RMK AO2 SLP149 T03280189